sensor_id;sensor_type;location;lat;lon;timestamp;pressure;altitude;pressure_sealevel;temperature;humidity
12594;BME280;6362;50.208;9.182;2023-06-26T00:01:55;99743.25;;;19.20;66.18
12594;BME280;6362;50.208;9.182;2023-06-26T00:04:20;99735.63;;;19.14;66.17
12594;BME280;6362;50.208;9.182;2023-06-26T00:06:46;99731.00;;;19.19;65.70
12594;BME280;6362;50.208;9.182;2023-06-26T00:09:12;99736.44;;;19.16;65.66
12594;BME280;6362;50.208;9.182;2023-06-26T00:11:37;99736.84;;;19.26;65.54
12594;BME280;6362;50.208;9.182;2023-06-26T00:14:02;99735.16;;;19.25;65.30
12594;BME280;6362;50.208;9.182;2023-06-26T00:16:28;99733.16;;;19.11;65.63
12594;BME280;6362;50.208;9.182;2023-06-26T00:18:54;99735.63;;;18.95;65.98
12594;BME280;6362;50.208;9.182;2023-06-26T00:21:19;99729.72;;;18.90;66.47
12594;BME280;6362;50.208;9.182;2023-06-26T00:23:45;99719.16;;;18.90;67.14
12594;BME280;6362;50.208;9.182;2023-06-26T00:26:11;99725.28;;;18.91;67.41
12594;BME280;6362;50.208;9.182;2023-06-26T00:28:37;99721.81;;;18.90;66.38
12594;BME280;6362;50.208;9.182;2023-06-26T00:31:03;99725.09;;;18.95;66.39
12594;BME280;6362;50.208;9.182;2023-06-26T00:33:29;99726.78;;;18.96;66.17
12594;BME280;6362;50.208;9.182;2023-06-26T00:35:54;99719.28;;;18.87;66.55
12594;BME280;6362;50.208;9.182;2023-06-26T00:38:19;99716.09;;;18.81;67.25
12594;BME280;6362;50.208;9.182;2023-06-26T00:40:45;99717.28;;;18.73;67.27
12594;BME280;6362;50.208;9.182;2023-06-26T00:43:10;99726.03;;;18.74;66.74
12594;BME280;6362;50.208;9.182;2023-06-26T00:45:36;99718.13;;;18.74;67.04
12594;BME280;6362;50.208;9.182;2023-06-26T00:48:02;99727.44;;;18.83;67.07
12594;BME280;6362;50.208;9.182;2023-06-26T00:50:28;99723.28;;;18.77;67.04
12594;BME280;6362;50.208;9.182;2023-06-26T00:52:54;99724.13;;;18.78;66.92
12594;BME280;6362;50.208;9.182;2023-06-26T00:55:22;99723.59;;;18.69;66.52
12594;BME280;6362;50.208;9.182;2023-06-26T00:57:47;99714.34;;;18.59;67.88
12594;BME280;6362;50.208;9.182;2023-06-26T01:00:14;99715.38;;;18.57;67.30
12594;BME280;6362;50.208;9.182;2023-06-26T01:02:39;99715.28;;;18.58;67.43
12594;BME280;6362;50.208;9.182;2023-06-26T01:05:06;99718.06;;;18.55;67.24
12594;BME280;6362;50.208;9.182;2023-06-26T01:07:38;99707.72;;;18.51;67.05
12594;BME280;6362;50.208;9.182;2023-06-26T01:10:05;99705.50;;;18.41;67.62
12594;BME280;6362;50.208;9.182;2023-06-26T01:12:32;99714.97;;;18.45;67.99
12594;BME280;6362;50.208;9.182;2023-06-26T01:14:58;99709.72;;;18.45;67.91
12594;BME280;6362;50.208;9.182;2023-06-26T01:17:24;99707.94;;;18.46;67.68
12594;BME280;6362;50.208;9.182;2023-06-26T01:19:50;99708.41;;;18.35;67.74
12594;BME280;6362;50.208;9.182;2023-06-26T01:25:37;99705.56;;;18.19;68.43
12594;BME280;6362;50.208;9.182;2023-06-26T01:28:06;99699.78;;;18.11;68.82
12594;BME280;6362;50.208;9.182;2023-06-26T01:30:35;99693.00;;;18.06;69.02
12594;BME280;6362;50.208;9.182;2023-06-26T01:33:02;99694.03;;;18.02;69.42
12594;BME280;6362;50.208;9.182;2023-06-26T01:35:28;99697.59;;;18.01;69.66
12594;BME280;6362;50.208;9.182;2023-06-26T01:40:39;99682.47;;;18.06;69.75
12594;BME280;6362;50.208;9.182;2023-06-26T01:43:06;99688.31;;;18.12;69.27
12594;BME280;6362;50.208;9.182;2023-06-26T01:45:35;99685.53;;;18.15;69.31
12594;BME280;6362;50.208;9.182;2023-06-26T01:48:03;99689.34;;;18.08;69.20
12594;BME280;6362;50.208;9.182;2023-06-26T01:50:31;99682.84;;;17.97;69.53
12594;BME280;6362;50.208;9.182;2023-06-26T01:53:16;99681.78;;;18.01;70.00
12594;BME280;6362;50.208;9.182;2023-06-26T01:55:55;99674.84;;;18.00;69.86
12594;BME280;6362;50.208;9.182;2023-06-26T01:58:25;99676.13;;;17.89;69.99
12594;BME280;6362;50.208;9.182;2023-06-26T02:00:51;99676.69;;;17.76;70.39
12594;BME280;6362;50.208;9.182;2023-06-26T02:03:16;99679.38;;;17.74;70.61
12594;BME280;6362;50.208;9.182;2023-06-26T02:05:42;99676.06;;;17.69;70.59
12594;BME280;6362;50.208;9.182;2023-06-26T02:08:13;99675.31;;;17.65;70.64
12594;BME280;6362;50.208;9.182;2023-06-26T02:10:39;99687.34;;;17.71;71.02
12594;BME280;6362;50.208;9.182;2023-06-26T02:13:04;99691.97;;;17.66;71.15
12594;BME280;6362;50.208;9.182;2023-06-26T02:15:30;99681.69;;;17.82;70.54
12594;BME280;6362;50.208;9.182;2023-06-26T02:17:55;99686.41;;;17.74;70.90
12594;BME280;6362;50.208;9.182;2023-06-26T02:20:20;99681.38;;;17.67;70.83
12594;BME280;6362;50.208;9.182;2023-06-26T02:22:46;99683.16;;;17.67;70.98
12594;BME280;6362;50.208;9.182;2023-06-26T02:25:11;99684.38;;;17.58;71.25
12594;BME280;6362;50.208;9.182;2023-06-26T02:27:38;99677.50;;;17.54;71.49
12594;BME280;6362;50.208;9.182;2023-06-26T02:30:04;99679.00;;;17.61;71.50
12594;BME280;6362;50.208;9.182;2023-06-26T02:32:30;99676.31;;;17.63;71.55
12594;BME280;6362;50.208;9.182;2023-06-26T02:34:55;99673.13;;;17.55;71.61
12594;BME280;6362;50.208;9.182;2023-06-26T02:37:20;99677.91;;;17.45;71.56
12594;BME280;6362;50.208;9.182;2023-06-26T02:39:46;99676.81;;;17.51;72.86
12594;BME280;6362;50.208;9.182;2023-06-26T02:42:11;99684.69;;;17.51;72.52
12594;BME280;6362;50.208;9.182;2023-06-26T02:44:37;99676.41;;;17.60;71.69
12594;BME280;6362;50.208;9.182;2023-06-26T02:47:02;99677.53;;;17.76;70.77
12594;BME280;6362;50.208;9.182;2023-06-26T02:49:28;99683.09;;;17.68;70.50
12594;BME280;6362;50.208;9.182;2023-06-26T02:51:53;99679.00;;;17.61;70.93
12594;BME280;6362;50.208;9.182;2023-06-26T02:54:19;99677.66;;;17.51;71.21
12594;BME280;6362;50.208;9.182;2023-06-26T02:56:44;99678.19;;;17.37;71.81
12594;BME280;6362;50.208;9.182;2023-06-26T02:59:10;99679.94;;;17.38;72.14
12594;BME280;6362;50.208;9.182;2023-06-26T03:01:35;99684.59;;;17.30;72.31
12594;BME280;6362;50.208;9.182;2023-06-26T03:04:01;99692.22;;;17.38;72.37
12594;BME280;6362;50.208;9.182;2023-06-26T03:06:27;99687.75;;;17.40;71.97
12594;BME280;6362;50.208;9.182;2023-06-26T03:08:53;99691.56;;;17.31;72.49
12594;BME280;6362;50.208;9.182;2023-06-26T03:11:18;99694.28;;;17.30;72.60
12594;BME280;6362;50.208;9.182;2023-06-26T03:13:44;99684.84;;;17.24;72.58
12594;BME280;6362;50.208;9.182;2023-06-26T03:16:10;99688.63;;;17.17;72.94
12594;BME280;6362;50.208;9.182;2023-06-26T03:18:35;99684.47;;;17.11;73.37
12594;BME280;6362;50.208;9.182;2023-06-26T03:21:00;99685.47;;;17.31;72.47
12594;BME280;6362;50.208;9.182;2023-06-26T03:23:26;99684.06;;;17.22;72.87
12594;BME280;6362;50.208;9.182;2023-06-26T03:25:51;99686.81;;;17.19;73.11
12594;BME280;6362;50.208;9.182;2023-06-26T03:28:17;99682.28;;;17.23;72.59
12594;BME280;6362;50.208;9.182;2023-06-26T03:30:42;99681.44;;;17.22;72.44
12594;BME280;6362;50.208;9.182;2023-06-26T03:33:08;99687.28;;;17.07;73.12
12594;BME280;6362;50.208;9.182;2023-06-26T03:35:33;99683.03;;;17.03;73.15
12594;BME280;6362;50.208;9.182;2023-06-26T03:37:59;99688.66;;;16.94;73.71
12594;BME280;6362;50.208;9.182;2023-06-26T03:40:26;99681.91;;;16.86;74.06
12594;BME280;6362;50.208;9.182;2023-06-26T03:42:51;99686.31;;;16.86;74.84
12594;BME280;6362;50.208;9.182;2023-06-26T03:45:17;99680.72;;;16.95;74.72
12594;BME280;6362;50.208;9.182;2023-06-26T03:47:44;99683.72;;;17.08;73.60
12594;BME280;6362;50.208;9.182;2023-06-26T03:50:09;99684.72;;;17.05;73.71
12594;BME280;6362;50.208;9.182;2023-06-26T03:52:35;99678.88;;;16.97;73.97
12594;BME280;6362;50.208;9.182;2023-06-26T03:55:00;99685.06;;;16.96;74.49
12594;BME280;6362;50.208;9.182;2023-06-26T03:57:25;99692.53;;;17.07;74.54
12594;BME280;6362;50.208;9.182;2023-06-26T03:59:52;99687.88;;;17.13;74.17
12594;BME280;6362;50.208;9.182;2023-06-26T04:02:18;99676.34;;;17.18;74.40
12594;BME280;6362;50.208;9.182;2023-06-26T04:04:43;99683.22;;;17.22;73.76
12594;BME280;6362;50.208;9.182;2023-06-26T04:07:09;99678.84;;;17.21;73.83
12594;BME280;6362;50.208;9.182;2023-06-26T04:09:35;99684.00;;;17.24;73.49
12594;BME280;6362;50.208;9.182;2023-06-26T04:12:00;99683.16;;;17.23;73.20
12594;BME280;6362;50.208;9.182;2023-06-26T04:14:26;99678.84;;;17.21;73.34
12594;BME280;6362;50.208;9.182;2023-06-26T04:16:51;99680.59;;;17.22;73.17
12594;BME280;6362;50.208;9.182;2023-06-26T04:19:17;99678.06;;;17.19;73.38
12594;BME280;6362;50.208;9.182;2023-06-26T04:21:43;99680.59;;;17.22;73.13
12594;BME280;6362;50.208;9.182;2023-06-26T04:24:09;99688.78;;;17.36;72.86
12594;BME280;6362;50.208;9.182;2023-06-26T04:26:34;99692.31;;;17.35;72.96
12594;BME280;6362;50.208;9.182;2023-06-26T04:28:59;99692.50;;;17.30;72.93
12594;BME280;6362;50.208;9.182;2023-06-26T04:31:25;99686.69;;;17.22;73.24
12594;BME280;6362;50.208;9.182;2023-06-26T04:33:51;99683.31;;;17.19;73.50
12594;BME280;6362;50.208;9.182;2023-06-26T04:36:19;99675.53;;;17.15;73.86
12594;BME280;6362;50.208;9.182;2023-06-26T04:38:45;99674.28;;;17.26;72.96
12594;BME280;6362;50.208;9.182;2023-06-26T04:41:10;99672.38;;;17.29;72.65
12594;BME280;6362;50.208;9.182;2023-06-26T04:43:36;99678.84;;;17.21;73.33
12594;BME280;6362;50.208;9.182;2023-06-26T04:46:05;99670.00;;;17.23;73.77
12594;BME280;6362;50.208;9.182;2023-06-26T04:48:31;99674.00;;;17.33;73.35
12594;BME280;6362;50.208;9.182;2023-06-26T04:50:56;99671.13;;;17.39;73.05
12594;BME280;6362;50.208;9.182;2023-06-26T04:53:24;99667.38;;;17.45;72.74
12594;BME280;6362;50.208;9.182;2023-06-26T04:55:53;99676.56;;;17.57;72.12
12594;BME280;6362;50.208;9.182;2023-06-26T04:58:19;99674.97;;;17.75;72.59
12594;BME280;6362;50.208;9.182;2023-06-26T05:00:45;99681.47;;;18.08;71.48
12594;BME280;6362;50.208;9.182;2023-06-26T05:03:15;99685.09;;;18.46;70.15
12594;BME280;6362;50.208;9.182;2023-06-26T05:05:42;99690.59;;;18.81;68.62
12594;BME280;6362;50.208;9.182;2023-06-26T05:08:33;99689.97;;;19.14;67.56
12594;BME280;6362;50.208;9.182;2023-06-26T05:10:59;99682.84;;;19.35;67.03
12594;BME280;6362;50.208;9.182;2023-06-26T05:13:25;99688.38;;;19.47;66.00
12594;BME280;6362;50.208;9.182;2023-06-26T05:15:51;99676.53;;;19.56;65.68
12594;BME280;6362;50.208;9.182;2023-06-26T05:18:17;99679.63;;;19.66;65.28
12594;BME280;6362;50.208;9.182;2023-06-26T05:20:42;99683.13;;;19.66;64.67
12594;BME280;6362;50.208;9.182;2023-06-26T05:23:13;99678.47;;;19.71;64.68
12594;BME280;6362;50.208;9.182;2023-06-26T05:25:38;99679.56;;;19.85;64.54
12594;BME280;6362;50.208;9.182;2023-06-26T05:28:04;99676.22;;;19.98;63.40
12594;BME280;6362;50.208;9.182;2023-06-26T05:30:36;99678.72;;;20.19;62.69
12594;BME280;6362;50.208;9.182;2023-06-26T05:33:02;99678.69;;;20.36;62.26
12594;BME280;6362;50.208;9.182;2023-06-26T05:35:29;99674.25;;;20.54;61.50
12594;BME280;6362;50.208;9.182;2023-06-26T05:37:56;99670.81;;;20.69;60.80
12594;BME280;6362;50.208;9.182;2023-06-26T05:40:22;99668.44;;;20.80;60.62
12594;BME280;6362;50.208;9.182;2023-06-26T05:42:48;99662.59;;;20.91;60.81
12594;BME280;6362;50.208;9.182;2023-06-26T05:45:14;99665.84;;;21.12;60.03
12594;BME280;6362;50.208;9.182;2023-06-26T05:47:39;99673.19;;;21.23;59.78
12594;BME280;6362;50.208;9.182;2023-06-26T05:50:07;99668.19;;;21.34;58.93
12594;BME280;6362;50.208;9.182;2023-06-26T05:52:33;99672.97;;;21.43;58.70
12594;BME280;6362;50.208;9.182;2023-06-26T05:54:58;99671.84;;;21.47;58.76
12594;BME280;6362;50.208;9.182;2023-06-26T05:57:26;99664.16;;;21.58;59.02
12594;BME280;6362;50.208;9.182;2023-06-26T05:59:52;99673.00;;;21.73;58.59
12594;BME280;6362;50.208;9.182;2023-06-26T06:02:18;99673.47;;;21.96;58.41
12594;BME280;6362;50.208;9.182;2023-06-26T06:04:43;99671.78;;;22.09;57.32
12594;BME280;6362;50.208;9.182;2023-06-26T06:07:09;99671.78;;;22.25;56.87
12594;BME280;6362;50.208;9.182;2023-06-26T06:09:34;99676.06;;;22.42;56.37
12594;BME280;6362;50.208;9.182;2023-06-26T06:11:59;99666.81;;;22.49;56.36
12594;BME280;6362;50.208;9.182;2023-06-26T06:14:27;99678.84;;;22.54;56.29
12594;BME280;6362;50.208;9.182;2023-06-26T06:16:53;99677.81;;;22.71;55.75
12594;BME280;6362;50.208;9.182;2023-06-26T06:19:18;99681.09;;;22.75;55.89
12594;BME280;6362;50.208;9.182;2023-06-26T06:21:44;99679.00;;;22.80;55.92
12594;BME280;6362;50.208;9.182;2023-06-26T06:24:09;99684.63;;;22.89;55.75
12594;BME280;6362;50.208;9.182;2023-06-26T06:26:35;99678.94;;;23.10;54.64
12594;BME280;6362;50.208;9.182;2023-06-26T06:29:00;99683.34;;;23.24;54.84
12594;BME280;6362;50.208;9.182;2023-06-26T06:31:26;99677.81;;;23.41;54.66
12594;BME280;6362;50.208;9.182;2023-06-26T06:33:54;99677.50;;;23.60;54.51
12594;BME280;6362;50.208;9.182;2023-06-26T06:36:19;99676.09;;;23.81;54.50
12594;BME280;6362;50.208;9.182;2023-06-26T06:38:45;99678.47;;;23.98;53.86
12594;BME280;6362;50.208;9.182;2023-06-26T06:41:10;99669.16;;;24.18;53.14
12594;BME280;6362;50.208;9.182;2023-06-26T06:43:36;99669.28;;;24.30;51.84
12594;BME280;6362;50.208;9.182;2023-06-26T06:46:02;99670.06;;;24.44;48.78
12594;BME280;6362;50.208;9.182;2023-06-26T06:48:27;99666.25;;;24.61;49.36
12594;BME280;6362;50.208;9.182;2023-06-26T06:50:53;99671.66;;;24.72;47.95
12594;BME280;6362;50.208;9.182;2023-06-26T06:53:18;99673.84;;;24.91;47.55
12594;BME280;6362;50.208;9.182;2023-06-26T06:55:48;99666.81;;;25.03;45.66
12594;BME280;6362;50.208;9.182;2023-06-26T06:58:14;99667.38;;;25.08;46.15
12594;BME280;6362;50.208;9.182;2023-06-26T07:00:41;99670.44;;;25.15;45.92
12594;BME280;6362;50.208;9.182;2023-06-26T07:03:07;99654.66;;;25.24;47.22
12594;BME280;6362;50.208;9.182;2023-06-26T07:05:32;99660.66;;;25.15;44.53
12594;BME280;6362;50.208;9.182;2023-06-26T07:07:57;99658.34;;;25.35;44.15
12594;BME280;6362;50.208;9.182;2023-06-26T07:10:23;99647.09;;;25.55;44.60
12594;BME280;6362;50.208;9.182;2023-06-26T07:12:48;99648.72;;;25.69;43.88
12594;BME280;6362;50.208;9.182;2023-06-26T07:15:14;99644.81;;;25.86;43.33
12594;BME280;6362;50.208;9.182;2023-06-26T07:17:39;99639.41;;;25.98;42.62
12594;BME280;6362;50.208;9.182;2023-06-26T07:20:05;99639.69;;;26.06;42.84
12594;BME280;6362;50.208;9.182;2023-06-26T07:22:35;99651.72;;;26.23;42.36
12594;BME280;6362;50.208;9.182;2023-06-26T07:25:01;99658.22;;;26.43;41.67
12594;BME280;6362;50.208;9.182;2023-06-26T07:27:29;99665.59;;;26.51;42.04
12594;BME280;6362;50.208;9.182;2023-06-26T07:29:55;99655.31;;;26.57;41.96
12594;BME280;6362;50.208;9.182;2023-06-26T07:32:21;99653.72;;;26.44;43.03
12594;BME280;6362;50.208;9.182;2023-06-26T07:34:46;99653.34;;;26.48;43.06
12594;BME280;6362;50.208;9.182;2023-06-26T07:37:12;99650.09;;;26.56;41.86
12594;BME280;6362;50.208;9.182;2023-06-26T07:39:37;99657.47;;;26.52;42.53
12594;BME280;6362;50.208;9.182;2023-06-26T07:42:02;99645.25;;;26.61;41.40
12594;BME280;6362;50.208;9.182;2023-06-26T07:44:28;99651.78;;;26.79;40.70
12594;BME280;6362;50.208;9.182;2023-06-26T07:46:53;99649.25;;;26.89;40.89
12594;BME280;6362;50.208;9.182;2023-06-26T07:49:19;99641.59;;;26.96;41.15
12594;BME280;6362;50.208;9.182;2023-06-26T07:51:44;99639.03;;;27.05;39.13
12594;BME280;6362;50.208;9.182;2023-06-26T07:54:10;99636.75;;;27.12;39.69
12594;BME280;6362;50.208;9.182;2023-06-26T07:56:56;99645.97;;;27.08;38.51
12594;BME280;6362;50.208;9.182;2023-06-26T07:59:23;99636.53;;;27.15;39.74
12594;BME280;6362;50.208;9.182;2023-06-26T08:01:50;99653.25;;;27.17;39.64
12594;BME280;6362;50.208;9.182;2023-06-26T08:04:18;99646.06;;;27.29;40.09
12594;BME280;6362;50.208;9.182;2023-06-26T08:06:44;99648.84;;;27.39;39.99
12594;BME280;6362;50.208;9.182;2023-06-26T08:09:09;99649.47;;;27.63;39.41
12594;BME280;6362;50.208;9.182;2023-06-26T08:11:35;99648.91;;;27.71;40.60
12594;BME280;6362;50.208;9.182;2023-06-26T08:14:00;99651.81;;;27.56;39.86
12594;BME280;6362;50.208;9.182;2023-06-26T08:16:26;99655.53;;;27.65;40.20
12594;BME280;6362;50.208;9.182;2023-06-26T08:18:51;99657.50;;;27.63;40.26
12594;BME280;6362;50.208;9.182;2023-06-26T08:21:17;99644.91;;;27.86;40.09
12594;BME280;6362;50.208;9.182;2023-06-26T08:23:42;99656.53;;;27.96;40.20
12594;BME280;6362;50.208;9.182;2023-06-26T08:26:07;99659.59;;;28.12;39.41
12594;BME280;6362;50.208;9.182;2023-06-26T08:28:33;99657.72;;;28.24;38.75
12594;BME280;6362;50.208;9.182;2023-06-26T08:30:58;99653.91;;;28.38;37.49
12594;BME280;6362;50.208;9.182;2023-06-26T08:33:25;99650.38;;;28.68;37.31
12594;BME280;6362;50.208;9.182;2023-06-26T08:35:50;99645.56;;;28.62;37.22
12594;BME280;6362;50.208;9.182;2023-06-26T08:38:15;99637.50;;;28.83;36.52
12594;BME280;6362;50.208;9.182;2023-06-26T08:40:41;99634.81;;;28.92;36.52
12594;BME280;6362;50.208;9.182;2023-06-26T08:43:06;99640.56;;;29.09;36.25
12594;BME280;6362;50.208;9.182;2023-06-26T08:45:32;99634.66;;;29.25;35.97
12594;BME280;6362;50.208;9.182;2023-06-26T08:48:00;99641.34;;;29.40;35.47
12594;BME280;6362;50.208;9.182;2023-06-26T08:50:28;99646.56;;;29.51;36.25
12594;BME280;6362;50.208;9.182;2023-06-26T08:55:38;99643.88;;;29.41;35.92
12594;BME280;6362;50.208;9.182;2023-06-26T08:58:06;99631.38;;;29.61;36.11
12594;BME280;6362;50.208;9.182;2023-06-26T09:00:32;99637.16;;;29.57;35.46
12594;BME280;6362;50.208;9.182;2023-06-26T09:02:58;99641.94;;;29.63;36.27
12594;BME280;6362;50.208;9.182;2023-06-26T09:05:25;99638.69;;;29.69;35.62
12594;BME280;6362;50.208;9.182;2023-06-26T09:07:52;99642.22;;;29.69;36.20
12594;BME280;6362;50.208;9.182;2023-06-26T09:10:21;99643.06;;;29.89;35.24
12594;BME280;6362;50.208;9.182;2023-06-26T09:12:47;99644.34;;;30.05;35.29
12594;BME280;6362;50.208;9.182;2023-06-26T09:15:19;99642.78;;;30.21;34.68
12594;BME280;6362;50.208;9.182;2023-06-26T09:17:44;99650.69;;;30.23;34.07
12594;BME280;6362;50.208;9.182;2023-06-26T09:20:10;99649.25;;;30.38;34.35
12594;BME280;6362;50.208;9.182;2023-06-26T09:22:37;99654.63;;;30.38;33.98
12594;BME280;6362;50.208;9.182;2023-06-26T09:25:05;99653.31;;;30.89;31.55
12594;BME280;6362;50.208;9.182;2023-06-26T09:27:31;99658.94;;;31.23;31.66
12594;BME280;6362;50.208;9.182;2023-06-26T09:29:57;99649.09;;;31.14;31.33
12594;BME280;6362;50.208;9.182;2023-06-26T09:32:24;99648.78;;;31.17;33.02
12594;BME280;6362;50.208;9.182;2023-06-26T09:34:52;99632.50;;;31.28;32.34
12594;BME280;6362;50.208;9.182;2023-06-26T09:37:18;99631.28;;;31.41;33.06
12594;BME280;6362;50.208;9.182;2023-06-26T09:39:44;99638.13;;;31.71;33.10
12594;BME280;6362;50.208;9.182;2023-06-26T09:42:09;99634.69;;;31.43;31.18
12594;BME280;6362;50.208;9.182;2023-06-26T09:44:35;99643.25;;;31.19;31.87
12594;BME280;6362;50.208;9.182;2023-06-26T09:47:02;99637.94;;;31.37;32.06
12594;BME280;6362;50.208;9.182;2023-06-26T09:49:29;99639.59;;;31.65;31.46
12594;BME280;6362;50.208;9.182;2023-06-26T09:51:54;99645.72;;;31.58;31.59
12594;BME280;6362;50.208;9.182;2023-06-26T09:54:21;99644.88;;;31.57;31.55
12594;BME280;6362;50.208;9.182;2023-06-26T09:56:47;99640.97;;;31.51;31.34
12594;BME280;6362;50.208;9.182;2023-06-26T09:59:13;99640.63;;;31.37;31.98
12594;BME280;6362;50.208;9.182;2023-06-26T10:01:45;99644.09;;;31.47;31.53
12594;BME280;6362;50.208;9.182;2023-06-26T10:04:11;99644.66;;;31.86;30.87
12594;BME280;6362;50.208;9.182;2023-06-26T10:06:43;99640.34;;;32.11;30.30
12594;BME280;6362;50.208;9.182;2023-06-26T10:09:10;99640.38;;;32.37;30.47
12594;BME280;6362;50.208;9.182;2023-06-26T10:12:01;99643.16;;;32.27;30.56
12594;BME280;6362;50.208;9.182;2023-06-26T10:14:33;99638.38;;;32.65;30.77
12594;BME280;6362;50.208;9.182;2023-06-26T10:16:59;99637.38;;;32.40;30.11
12594;BME280;6362;50.208;9.182;2023-06-26T10:19:27;99640.59;;;32.44;30.18
12594;BME280;6362;50.208;9.182;2023-06-26T10:21:54;99632.31;;;32.19;30.34
12594;BME280;6362;50.208;9.182;2023-06-26T10:24:24;99639.66;;;31.91;31.15
12594;BME280;6362;50.208;9.182;2023-06-26T10:27:04;99637.06;;;31.82;31.13
12594;BME280;6362;50.208;9.182;2023-06-26T10:29:34;99642.03;;;32.12;32.62
12594;BME280;6362;50.208;9.182;2023-06-26T10:32:02;99648.56;;;32.10;31.94
12594;BME280;6362;50.208;9.182;2023-06-26T10:34:29;99644.81;;;31.67;32.54
12594;BME280;6362;50.208;9.182;2023-06-26T10:37:02;99651.09;;;31.12;32.60
12594;BME280;6362;50.208;9.182;2023-06-26T10:39:45;99646.41;;;31.14;33.27
12594;BME280;6362;50.208;9.182;2023-06-26T10:42:12;99648.00;;;31.70;33.29
12594;BME280;6362;50.208;9.182;2023-06-26T10:44:46;99649.97;;;31.96;33.00
12594;BME280;6362;50.208;9.182;2023-06-26T10:47:31;99649.72;;;32.07;31.16
12594;BME280;6362;50.208;9.182;2023-06-26T10:50:16;99644.50;;;32.31;31.61
12594;BME280;6362;50.208;9.182;2023-06-26T10:52:41;99649.44;;;32.88;32.10
12594;BME280;6362;50.208;9.182;2023-06-26T10:55:10;99647.66;;;33.05;31.13
12594;BME280;6362;50.208;9.182;2023-06-26T10:57:36;99655.41;;;33.08;31.04
12594;BME280;6362;50.208;9.182;2023-06-26T11:00:13;99648.22;;;33.25;30.56
12594;BME280;6362;50.208;9.182;2023-06-26T11:02:52;99651.59;;;33.35;29.74
12594;BME280;6362;50.208;9.182;2023-06-26T11:05:35;99652.69;;;33.08;30.95
12594;BME280;6362;50.208;9.182;2023-06-26T11:08:06;99656.47;;;33.15;30.40
12594;BME280;6362;50.208;9.182;2023-06-26T11:10:51;99636.78;;;33.39;30.64
12594;BME280;6362;50.208;9.182;2023-06-26T11:13:18;99639.81;;;33.36;31.15
12594;BME280;6362;50.208;9.182;2023-06-26T11:15:49;99643.09;;;33.05;31.11
12594;BME280;6362;50.208;9.182;2023-06-26T11:18:14;99644.13;;;32.44;32.49
12594;BME280;6362;50.208;9.182;2023-06-26T11:20:41;99647.91;;;32.33;34.23
12594;BME280;6362;50.208;9.182;2023-06-26T11:23:07;99639.59;;;32.01;34.87
12594;BME280;6362;50.208;9.182;2023-06-26T11:25:37;99650.75;;;31.88;34.61
12594;BME280;6362;50.208;9.182;2023-06-26T11:28:04;99652.09;;;31.74;34.78
12594;BME280;6362;50.208;9.182;2023-06-26T11:30:30;99656.09;;;31.52;34.79
12594;BME280;6362;50.208;9.182;2023-06-26T11:33:06;99661.22;;;31.64;35.13
12594;BME280;6362;50.208;9.182;2023-06-26T11:35:32;99657.47;;;31.74;35.20
12594;BME280;6362;50.208;9.182;2023-06-26T11:37:58;99667.44;;;31.28;34.53
12594;BME280;6362;50.208;9.182;2023-06-26T11:43:35;99670.97;;;31.19;36.48
12594;BME280;6362;50.208;9.182;2023-06-26T11:46:00;99663.97;;;31.09;35.38
12594;BME280;6362;50.208;9.182;2023-06-26T11:48:26;99660.59;;;31.07;35.58
12594;BME280;6362;50.208;9.182;2023-06-26T11:50:51;99662.50;;;30.87;35.16
12594;BME280;6362;50.208;9.182;2023-06-26T11:53:17;99667.50;;;30.82;39.21
12594;BME280;6362;50.208;9.182;2023-06-26T11:55:42;99665.25;;;30.67;35.96
12594;BME280;6362;50.208;9.182;2023-06-26T11:58:10;99663.56;;;31.03;35.25
12594;BME280;6362;50.208;9.182;2023-06-26T12:00:41;99668.16;;;31.66;35.72
12594;BME280;6362;50.208;9.182;2023-06-26T12:03:07;99661.56;;;31.61;34.34
12594;BME280;6362;50.208;9.182;2023-06-26T12:05:33;99665.81;;;31.36;34.34
12594;BME280;6362;50.208;9.182;2023-06-26T12:07:58;99671.56;;;32.04;34.35
12594;BME280;6362;50.208;9.182;2023-06-26T12:10:25;99674.13;;;32.49;34.24
12594;BME280;6362;50.208;9.182;2023-06-26T12:12:50;99687.16;;;33.30;33.91
12594;BME280;6362;50.208;9.182;2023-06-26T12:15:16;99695.31;;;33.04;31.83
12594;BME280;6362;50.208;9.182;2023-06-26T12:17:42;99689.25;;;33.45;31.55
12594;BME280;6362;50.208;9.182;2023-06-26T12:20:22;99678.91;;;33.99;29.77
12594;BME280;6362;50.208;9.182;2023-06-26T12:22:48;99687.00;;;34.15;30.41
12594;BME280;6362;50.208;9.182;2023-06-26T12:25:14;99691.34;;;33.92;29.57
12594;BME280;6362;50.208;9.182;2023-06-26T12:27:40;99685.53;;;33.46;30.55
12594;BME280;6362;50.208;9.182;2023-06-26T12:30:06;99687.44;;;33.19;30.96
12594;BME280;6362;50.208;9.182;2023-06-26T12:32:32;99690.19;;;33.27;33.20
12594;BME280;6362;50.208;9.182;2023-06-26T12:34:57;99691.47;;;33.57;32.49
12594;BME280;6362;50.208;9.182;2023-06-26T12:37:24;99689.78;;;33.14;31.48
12594;BME280;6362;50.208;9.182;2023-06-26T12:39:53;99690.03;;;32.69;32.08
12594;BME280;6362;50.208;9.182;2023-06-26T12:42:23;99685.69;;;32.06;31.80
12594;BME280;6362;50.208;9.182;2023-06-26T12:44:50;99695.09;;;31.39;33.30
12594;BME280;6362;50.208;9.182;2023-06-26T12:47:22;99697.78;;;31.01;33.14
12594;BME280;6362;50.208;9.182;2023-06-26T12:49:51;99689.75;;;31.01;34.59
12594;BME280;6362;50.208;9.182;2023-06-26T12:52:17;99688.13;;;31.46;34.12
12594;BME280;6362;50.208;9.182;2023-06-26T12:54:46;99683.19;;;31.59;33.32
12594;BME280;6362;50.208;9.182;2023-06-26T12:57:13;99686.59;;;31.61;32.86
12594;BME280;6362;50.208;9.182;2023-06-26T12:59:39;99686.03;;;31.40;33.70
12594;BME280;6362;50.208;9.182;2023-06-26T13:02:05;99688.78;;;31.30;34.21
12594;BME280;6362;50.208;9.182;2023-06-26T13:04:31;99679.84;;;31.02;34.45
12594;BME280;6362;50.208;9.182;2023-06-26T13:06:57;99686.59;;;30.79;34.35
12594;BME280;6362;50.208;9.182;2023-06-26T13:09:23;99688.94;;;31.19;34.68
12594;BME280;6362;50.208;9.182;2023-06-26T13:11:53;99679.16;;;31.73;33.13
12594;BME280;6362;50.208;9.182;2023-06-26T13:14:19;99680.50;;;32.30;33.04
12594;BME280;6362;50.208;9.182;2023-06-26T13:16:44;99672.63;;;32.55;31.14
12594;BME280;6362;50.208;9.182;2023-06-26T13:19:10;99672.28;;;32.84;32.99
12594;BME280;6362;50.208;9.182;2023-06-26T13:21:36;99676.44;;;32.44;31.52